Time;durP1;ratioP1;P1;durP2;ratioP2;P2;SDS_P1;SDS_P2;PMS_P1;PMS_P2;Temp;Humidity;BMP_temperature;BMP_pressure;BME280_temperature;BME280_humidity;BME280_pressure;Samples;Min_cycle;Max_cycle;Signal;HPM_P1;HPM_P2
2023/01/24 00:01:24;;;;;;;;;13.75;9.50;;;;;4.51;63.17;102650.34;6332255;22;45663;-77
2023/01/24 00:03:50;;;;;;;;;22.25;17.00;;;;;4.45;63.54;102647.81;6331799;22;45615;-78
2023/01/24 00:06:16;;;;;;;;;24.25;19.50;;;;;4.42;63.54;102636.63;6332072;22;47238;-77
2023/01/24 00:08:41;;;;;;;;;22.25;18.00;;;;;4.47;63.07;102642.63;6330171;22;46968;-77
2023/01/24 00:11:09;;;;;;;;;23.75;18.50;;;;;4.45;63.58;102659.94;6331409;22;45627;-77
2023/01/24 00:13:36;;;;;;;;;28.50;18.75;;;;;4.36;63.76;102636.72;6331376;22;45717;-79
2023/01/24 00:16:15;;;;;;;;;23.25;14.75;;;;;4.44;64.06;102648.69;6331203;22;46427;-77
2023/01/24 00:18:41;;;;;;;;;25.00;17.00;;;;;4.40;63.74;102662.59;6329946;22;45830;-76
2023/01/24 00:21:15;;;;;;;;;29.25;19.75;;;;;4.37;63.66;102641.03;6331859;22;45597;-76
2023/01/24 00:23:43;;;;;;;;;18.75;14.50;;;;;4.37;64.10;102651.41;6332717;22;45633;-77
2023/01/24 00:26:09;;;;;;;;;34.25;25.00;;;;;4.38;64.23;102640.13;6333570;22;47746;-77
2023/01/24 00:28:34;;;;;;;;;26.25;22.50;;;;;4.35;64.23;102641.03;6334537;22;47008;-78
2023/01/24 00:31:00;;;;;;;;;23.25;20.25;;;;;4.38;64.36;102642.72;6332089;22;45732;-79
2023/01/24 00:33:25;;;;;;;;;40.00;31.00;;;;;4.38;64.04;102635.78;6330429;22;45706;-76
2023/01/24 00:35:51;;;;;;;;;28.00;23.00;;;;;4.36;64.45;102629.78;6331198;22;45772;-75
2023/01/24 00:38:18;;;;;;;;;31.75;25.25;;;;;4.39;64.28;102629.72;6330522;22;46346;-76
2023/01/24 00:40:43;;;;;;;;;29.00;21.25;;;;;4.40;64.50;102631.44;6303464;22;45887;-76
2023/01/24 00:43:09;;;;;;;;;31.25;19.00;;;;;4.41;64.49;102643.56;6329864;22;45648;-77
2023/01/24 00:45:36;;;;;;;;;32.25;25.50;;;;;4.41;64.36;102635.78;6297189;22;47215;-77
2023/01/24 00:48:03;;;;;;;;;26.25;23.25;;;;;4.44;64.45;102632.25;6298636;22;47185;-78
2023/01/24 00:50:28;;;;;;;;;26.75;20.75;;;;;4.43;64.53;102635.72;6299329;22;45552;-77
2023/01/24 00:52:53;;;;;;;;;29.50;25.50;;;;;4.41;64.64;102629.72;6299529;22;46032;-77
2023/01/24 00:55:19;;;;;;;;;30.75;27.25;;;;;4.42;64.58;102636.63;6299863;22;45808;-77
2023/01/24 00:57:44;;;;;;;;;31.75;22.50;;;;;4.43;64.54;102638.31;6299935;22;45921;-77
2023/01/24 01:00:10;;;;;;;;;31.25;24.00;;;;;4.38;64.36;102632.34;6299183;22;45636;-78
2023/01/24 01:02:35;;;;;;;;;29.75;24.50;;;;;4.43;64.53;102640.91;6299619;22;46177;-76
2023/01/24 01:05:00;;;;;;;;;27.75;24.75;;;;;4.41;64.60;102637.50;6299574;22;46924;-78
2023/01/24 01:07:26;;;;;;;;;26.00;17.75;;;;;4.38;64.90;102625.41;6301656;22;46110;-78
2023/01/24 01:09:51;;;;;;;;;24.50;20.00;;;;;4.40;64.51;102628.00;6299399;22;45569;-77
2023/01/24 01:12:16;;;;;;;;;30.25;23.75;;;;;4.36;64.39;102627.19;6299888;22;45551;-78
2023/01/24 01:14:42;;;;;;;;;35.00;26.75;;;;;4.43;64.75;102648.69;6298807;22;47477;-78
2023/01/24 01:17:07;;;;;;;;;33.50;24.25;;;;;4.38;64.54;102632.34;6299278;22;46054;-76
2023/01/24 01:19:32;;;;;;;;;31.25;24.25;;;;;4.42;64.52;102649.59;6299926;22;45692;-78
2023/01/24 01:21:58;;;;;;;;;31.25;21.00;;;;;4.39;64.91;102644.44;6300365;22;45629;-76
2023/01/24 01:24:23;;;;;;;;;25.75;22.25;;;;;4.35;64.72;102648.81;6299199;22;46517;-78
2023/01/24 01:26:49;;;;;;;;;25.00;20.75;;;;;4.29;65.16;102651.47;6297470;22;46291;-77
2023/01/24 01:29:14;;;;;;;;;24.00;22.50;;;;;4.28;64.59;102647.16;6299428;22;45560;-77
2023/01/24 01:31:39;;;;;;;;;30.50;26.00;;;;;4.36;64.82;102660.91;6300813;22;45900;-76
2023/01/24 01:34:05;;;;;;;;;33.25;26.25;;;;;4.33;64.94;102645.38;6298858;22;46492;-77
2023/01/24 01:36:30;;;;;;;;;30.25;24.00;;;;;4.35;64.65;102647.97;6299494;22;45988;-78
2023/01/24 01:38:55;;;;;;;;;29.75;26.75;;;;;4.35;64.96;102645.38;6298936;22;46053;-78
2023/01/24 01:41:21;;;;;;;;;33.50;27.50;;;;;4.39;64.65;102650.50;6299826;22;45867;-78
2023/01/24 01:46:39;;;;;;;;;28.25;22.25;;;;;4.38;64.91;102651.34;6331283;22;46082;-77
2023/01/24 01:49:06;;;;;;;;;30.25;23.00;;;;;4.36;65.02;102649.69;6329663;22;45762;-76
2023/01/24 01:51:38;;;;;;;;;30.00;26.25;;;;;4.25;65.12;102642.03;6331372;22;45463;-78
2023/01/24 01:54:19;;;;;;;;;28.00;22.25;;;;;4.34;65.07;102646.22;6330310;22;47262;-79
2023/01/24 01:56:50;;;;;;;;;34.25;28.00;;;;;4.29;65.01;102659.28;6330022;22;46215;-77
2023/01/24 01:59:26;;;;;;;;;38.50;31.50;;;;;4.27;65.11;102648.03;6330354;22;46054;-79
2023/01/24 02:01:54;;;;;;;;;38.75;27.75;;;;;4.31;65.13;102657.53;6331070;22;45555;-78
2023/01/24 02:04:25;;;;;;;;;34.50;29.75;;;;;4.27;65.56;102649.78;6330735;22;47496;-77
2023/01/24 02:07:15;;;;;;;;;38.00;28.75;;;;;4.34;65.45;102662.66;6332120;22;45658;-77
2023/01/24 02:09:43;;;;;;;;;30.75;26.75;;;;;4.29;65.39;102659.28;6332793;22;45688;-79
2023/01/24 02:12:41;;;;;;;;;42.00;32.25;;;;;4.30;65.26;102668.78;6302220;22;45632;-78
2023/01/24 02:17:54;;;;;;;;;40.75;27.25;;;;;4.15;65.38;102649.06;6172674;23;46110;-76
2023/01/24 02:20:39;;;;;;;;;26.25;20.00;;;;;4.20;65.37;102667.16;6172342;23;45923;-77
2023/01/24 02:23:28;;;;;;;;;32.25;25.75;;;;;4.13;65.27;102670.69;6172534;23;45905;-76
2023/01/24 02:26:20;;;;;;;;;22.75;20.25;;;;;4.17;65.05;102681.00;6147268;23;47686;-76
2023/01/24 02:28:55;;;;;;;;;38.50;24.25;;;;;4.16;65.29;102673.25;6172482;23;45938;-77
2023/01/24 02:31:22;;;;;;;;;37.50;33.50;;;;;4.13;65.32;102671.56;6173377;23;45671;-76
2023/01/24 02:33:47;;;;;;;;;35.00;23.25;;;;;4.08;65.48;102652.59;6173034;23;46160;-79
2023/01/24 02:36:30;;;;;;;;;27.75;21.75;;;;;4.09;65.43;102664.69;6173995;23;45735;-78
2023/01/24 02:39:11;;;;;;;;;34.00;22.50;;;;;4.08;65.29;102662.09;6149156;23;46091;-77
2023/01/24 02:41:49;;;;;;;;;26.75;23.75;;;;;4.09;65.52;102659.50;6173680;23;46033;-76
2023/01/24 02:44:21;;;;;;;;;32.00;27.25;;;;;4.08;65.34;102660.38;6172640;23;45768;-77
2023/01/24 02:46:47;;;;;;;;;28.50;26.00;;;;;3.98;65.22;102635.44;6172700;23;46464;-75
2023/01/24 02:49:12;;;;;;;;;33.25;23.00;;;;;4.06;65.04;102651.75;6172485;23;46335;-78
2023/01/24 02:54:22;;;;;;;;;33.50;29.50;;;;;4.09;64.94;102666.44;6330707;22;46006;-78
2023/01/24 02:59:31;;;;;;;;;34.75;28.00;;;;;4.08;65.27;102656.94;6330914;22;46101;-77
2023/01/24 03:01:56;;;;;;;;;31.50;24.25;;;;;4.09;64.96;102667.28;6332766;22;45513;-77
2023/01/24 03:04:21;;;;;;;;;30.00;19.00;;;;;4.04;64.71;102637.09;6331353;22;45654;-77
2023/01/24 03:06:48;;;;;;;;;35.25;29.00;;;;;4.05;64.95;102649.19;6331625;22;45801;-78
2023/01/24 03:09:33;;;;;;;;;31.25;23.00;;;;;3.99;64.90;102647.53;6330747;22;46025;-77
2023/01/24 03:36:35;;;;;;;;;35.25;27.25;;;;;3.75;65.59;102652.94;6329271;22;45545;-77
2023/01/24 03:41:44;;;;;;;;;27.00;22.50;;;;;3.74;65.36;102662.47;6330385;22;45648;-76
2023/01/24 03:44:09;;;;;;;;;26.25;20.50;;;;;3.74;65.98;102662.47;6328446;22;45651;-78
2023/01/24 03:46:39;;;;;;;;;32.50;26.00;;;;;3.71;65.68;102657.31;6271504;22;46253;-78
2023/01/24 03:49:05;;;;;;;;;33.25;26.00;;;;;3.79;65.58;102665.00;6297847;22;47248;-78
2023/01/24 03:54:14;;;;;;;;;30.25;26.25;;;;;3.82;65.77;102662.41;6299193;22;45675;-77
2023/01/24 03:56:40;;;;;;;;;30.25;24.25;;;;;3.80;65.79;102664.13;6298709;22;45539;-78
2023/01/24 03:59:05;;;;;;;;;40.00;30.25;;;;;3.78;65.74;102658.94;6302731;22;45652;-78
2023/01/24 04:01:30;;;;;;;;;38.00;32.75;;;;;3.78;65.96;102663.28;6300785;22;47458;-78
2023/01/24 04:03:56;;;;;;;;;37.50;31.25;;;;;3.79;65.67;102665.88;6297640;22;45696;-77
2023/01/24 04:06:21;;;;;;;;;37.25;30.75;;;;;3.80;65.68;102667.59;6298018;22;45555;-78
2023/01/24 04:08:46;;;;;;;;;33.25;29.25;;;;;3.77;65.68;102659.84;6297094;22;47101;-77
2023/01/24 04:11:12;;;;;;;;;34.75;32.00;;;;;3.75;65.61;102653.81;6297965;22;46976;-77
2023/01/24 04:13:37;;;;;;;;;28.25;23.50;;;;;3.82;65.78;102662.41;6297609;22;45682;-77
2023/01/24 04:16:06;;;;;;;;;30.00;25.75;;;;;3.80;65.34;102661.53;6298335;22;45526;-78
2023/01/24 04:18:31;;;;;;;;;40.50;31.50;;;;;3.85;65.67;102669.25;6297127;22;45627;-77
2023/01/24 04:21:01;;;;;;;;;32.50;28.50;;;;;3.82;65.89;102659.81;6297637;22;46598;-78
2023/01/24 04:23:27;;;;;;;;;38.75;31.00;;;;;3.84;65.65;102655.44;6297143;22;46023;-77
2023/01/24 04:25:56;;;;;;;;;38.25;25.75;;;;;3.83;65.54;102651.16;6270257;22;45728;-78
2023/01/24 04:28:22;;;;;;;;;32.25;28.00;;;;;3.79;65.42;102634.75;6297557;22;45597;-77
2023/01/24 04:30:47;;;;;;;;;28.00;23.25;;;;;3.90;65.74;102657.97;6270191;22;46092;-77
2023/01/24 04:33:13;;;;;;;;;35.50;30.75;;;;;3.94;65.72;102658.81;6297440;22;45550;-78
2023/01/24 04:35:38;;;;;;;;;32.75;30.75;;;;;3.95;65.77;102658.78;6298051;22;45584;-77
2023/01/24 04:38:03;;;;;;;;;37.75;27.00;;;;;3.96;65.72;102652.72;6299776;22;45569;-77
2023/01/24 04:40:29;;;;;;;;;35.00;29.75;;;;;3.97;65.17;102664.81;6298740;22;47282;-77
2023/01/24 04:42:56;;;;;;;;;34.25;29.00;;;;;3.98;65.66;102653.59;6298418;22;46144;-77
2023/01/24 04:45:22;;;;;;;;;30.75;28.75;;;;;4.00;65.83;102656.13;6300954;22;46016;-77
2023/01/24 04:47:47;;;;;;;;;36.00;29.00;;;;;4.03;65.78;102666.50;6298969;22;47157;-76
2023/01/24 04:50:13;;;;;;;;;40.25;32.00;;;;;4.06;65.69;102671.63;6298369;22;45711;-78
2023/01/24 04:52:38;;;;;;;;;35.75;29.25;;;;;4.06;65.52;102664.72;6298230;22;45662;-77
2023/01/24 04:55:04;;;;;;;;;32.75;26.25;;;;;4.04;65.80;102657.84;6272663;22;45634;-75
2023/01/24 04:57:29;;;;;;;;;28.25;26.25;;;;;4.06;65.65;102664.72;6298479;22;46500;-76
2023/01/24 04:59:54;;;;;;;;;31.50;26.00;;;;;4.05;65.56;102665.59;6299337;22;46302;-77
2023/01/24 05:02:20;;;;;;;;;37.25;27.75;;;;;3.97;65.83;102661.38;6298661;22;45646;-77
2023/01/24 05:04:45;;;;;;;;;30.00;26.00;;;;;4.06;65.72;102675.09;6299593;22;45697;-78
2023/01/24 05:07:10;;;;;;;;;23.50;21.50;;;;;4.06;65.51;102682.88;6298051;22;46531;-75
2023/01/24 05:09:37;;;;;;;;;34.25;27.00;;;;;4.04;65.77;102692.41;6298599;22;46961;-77
2023/01/24 05:12:02;;;;;;;;;45.75;29.00;;;;;4.02;65.38;102680.31;6299484;22;45982;-77
2023/01/24 05:14:28;;;;;;;;;37.75;26.25;;;;;3.92;65.55;102676.13;6298734;22;45722;-78
2023/01/24 05:16:53;;;;;;;;;40.25;32.75;;;;;3.93;65.89;102681.28;6298457;22;46461;-79
2023/01/24 05:19:18;;;;;;;;;28.50;26.00;;;;;3.74;66.08;102653.81;6298440;22;47086;-77
2023/01/24 05:21:44;;;;;;;;;38.50;31.25;;;;;3.91;66.07;102689.94;6270590;22;45616;-78
2023/01/24 05:24:09;;;;;;;;;37.50;31.50;;;;;3.90;65.82;102685.63;6271315;22;45632;-78
2023/01/24 05:26:34;;;;;;;;;42.25;31.50;;;;;3.88;65.90;102690.00;6297470;22;46276;-78
2023/01/24 05:29:00;;;;;;;;;31.50;25.75;;;;;3.79;65.99;102685.75;6298654;22;46193;-76
2023/01/24 05:31:25;;;;;;;;;33.50;30.75;;;;;3.83;66.38;102689.19;6297325;22;45962;-77
2023/01/24 05:33:50;;;;;;;;;34.75;30.00;;;;;3.83;66.40;102684.84;6271366;22;45493;-78
2023/01/24 05:36:19;;;;;;;;;50.75;40.00;;;;;3.82;66.67;102690.91;6298482;22;46314;-78
2023/01/24 05:38:45;;;;;;;;;43.50;37.25;;;;;3.79;66.21;102690.91;6297614;22;47052;-77
2023/01/24 05:41:12;;;;;;;;;43.75;34.50;;;;;3.69;66.19;102676.34;6300070;22;45739;-77
2023/01/24 05:43:38;;;;;;;;;33.50;26.75;;;;;3.80;66.47;102688.31;6299200;22;45870;-77
2023/01/24 05:46:07;;;;;;;;;38.75;27.75;;;;;3.79;66.27;102696.09;6301459;22;46387;-78
2023/01/24 05:48:32;;;;;;;;;31.25;28.00;;;;;3.74;66.20;102680.59;6306362;22;46294;-79
2023/01/24 05:51:00;;;;;;;;;31.50;26.75;;;;;3.82;66.19;102703.88;6305640;22;45416;-76
2023/01/24 05:53:27;;;;;;;;;36.50;25.50;;;;;3.82;66.56;102697.81;6299526;22;45850;-78
2023/01/24 05:55:59;;;;;;;;;31.25;24.50;;;;;3.85;66.56;102706.44;6301076;22;46416;-77
2023/01/24 05:58:26;;;;;;;;;36.50;28.50;;;;;3.78;66.34;102687.47;6297854;22;47245;-77
2023/01/24 06:00:51;;;;;;;;;29.00;21.00;;;;;3.85;66.54;102695.19;6299944;22;46083;-77
2023/01/24 06:03:17;;;;;;;;;37.50;28.50;;;;;3.83;66.43;102691.78;6298373;22;45807;-77
2023/01/24 06:05:47;;;;;;;;;29.50;22.25;;;;;3.90;66.27;102702.06;6299079;22;47157;-77
2023/01/24 06:08:12;;;;;;;;;37.50;32.75;;;;;3.92;66.41;102700.31;6297936;22;46537;-78
2023/01/24 06:10:38;;;;;;;;;41.00;29.75;;;;;3.92;66.56;102694.25;6298363;22;45618;-77
2023/01/24 06:13:03;;;;;;;;;37.00;30.50;;;;;3.88;66.16;102679.63;6299504;22;45747;-78
2023/01/24 06:15:28;;;;;;;;;37.75;30.50;;;;;3.99;66.57;102708.91;6298241;22;46288;-78
2023/01/24 06:17:54;;;;;;;;;39.25;26.25;;;;;4.00;66.22;102703.66;6298988;22;46458;-78
2023/01/24 06:20:19;;;;;;;;;31.75;27.00;;;;;4.00;65.98;102708.84;6298060;22;45720;-77
2023/01/24 06:22:52;;;;;;;;;42.50;30.25;;;;;3.97;65.86;102702.84;6297748;22;45621;-77
2023/01/24 06:25:21;;;;;;;;;32.00;29.50;;;;;3.95;66.20;102715.81;6299095;22;47568;-77
2023/01/24 06:27:48;;;;;;;;;37.50;28.50;;;;;3.92;66.50;102717.59;6298221;22;45550;-78
2023/01/24 06:30:14;;;;;;;;;38.75;31.75;;;;;3.86;66.43;102717.66;6298266;22;46105;-79
2023/01/24 06:33:04;;;;;;;;;43.75;25.75;;;;;3.88;66.60;102718.50;6298221;22;46109;-77
2023/01/24 06:35:42;;;;;;;;;30.25;18.50;;;;;3.84;66.50;102720.25;6298386;22;45732;-79
2023/01/24 06:38:23;;;;;;;;;30.75;23.25;;;;;3.84;66.32;102722.84;6269792;22;47501;-77
2023/01/24 06:40:55;;;;;;;;;34.00;23.75;;;;;3.80;66.41;102715.97;6298670;22;45977;-79
2023/01/24 06:43:20;;;;;;;;;32.00;28.25;;;;;3.72;66.41;102697.06;6299059;22;46028;-77
2023/01/24 06:45:46;;;;;;;;;44.75;32.50;;;;;3.79;66.84;102709.06;6298834;22;47030;-77
2023/01/24 06:48:11;;;;;;;;;37.75;31.25;;;;;3.80;66.53;102718.56;6297306;22;45824;-78
2023/01/24 06:50:36;;;;;;;;;43.25;32.50;;;;;3.80;66.57;102722.03;6300662;22;45591;-78
2023/01/24 06:53:02;;;;;;;;;42.00;30.75;;;;;3.83;66.70;102728.94;6270706;22;45883;-78
2023/01/24 06:55:27;;;;;;;;;37.25;28.25;;;;;3.78;66.65;102718.56;6298281;22;45629;-78
2023/01/24 06:57:57;;;;;;;;;35.75;28.75;;;;;3.74;66.75;102723.81;6297092;22;46116;-77
2023/01/24 07:00:23;;;;;;;;;29.75;23.25;;;;;3.77;66.48;102731.56;6298545;22;45665;-75
2023/01/24 07:02:59;;;;;;;;;32.75;27.50;;;;;3.76;67.01;102733.31;6294809;22;45960;-78
2023/01/24 07:05:26;;;;;;;;;39.75;33.50;;;;;3.70;67.11;102720.41;6298189;22;47337;-75
2023/01/24 07:07:51;;;;;;;;;40.50;33.25;;;;;3.70;66.90;102722.13;6268512;22;47090;-77
2023/01/24 07:10:16;;;;;;;;;26.50;18.75;;;;;3.77;67.17;102734.16;6297021;22;45689;-73
2023/01/24 07:12:42;;;;;;;;;47.50;38.00;;;;;3.75;66.94;102733.31;6270066;22;45797;-75
2023/01/24 07:15:08;;;;;;;;;42.00;35.00;;;;;3.77;66.96;102732.44;6298641;22;45621;-73
2023/01/24 07:17:34;;;;;;;;;37.75;30.25;;;;;3.74;67.03;102740.22;6296147;22;46317;-72
2023/01/24 07:20:00;;;;;;;;;39.75;34.25;;;;;3.77;67.12;102741.94;6296929;22;45543;-72
2023/01/24 07:22:25;;;;;;;;;41.25;36.50;;;;;3.76;67.30;102728.13;6296648;22;45581;-72
2023/01/24 07:24:51;;;;;;;;;42.00;35.75;;;;;3.82;67.30;102747.94;6296109;22;46246;-72
2023/01/24 07:27:16;;;;;;;;;39.00;28.25;;;;;3.86;67.31;102743.56;6270869;22;47355;-72
2023/01/24 07:29:42;;;;;;;;;44.25;34.25;;;;;3.88;67.35;102749.63;6298375;22;45600;-72
2023/01/24 07:32:09;;;;;;;;;47.50;38.00;;;;;3.88;67.19;102742.72;6297697;22;45580;-71
2023/01/24 07:34:35;;;;;;;;;17.00;7.75;;;;;3.89;67.50;102752.19;6299218;22;45618;-72
2023/01/24 07:37:01;;;;;;;;;38.50;33.00;;;;;3.91;67.38;102749.59;6298268;22;45874;-72
2023/01/24 07:39:28;;;;;;;;;46.25;34.50;;;;;3.92;67.33;102739.19;6297620;22;45871;-72
2023/01/24 07:41:54;;;;;;;;;46.50;36.00;;;;;3.93;67.16;102753.03;6297993;22;45528;-73
2023/01/24 07:44:20;;;;;;;;;37.75;30.50;;;;;3.93;67.33;102753.91;6298026;22;46240;-73
2023/01/24 07:46:45;;;;;;;;;48.00;36.00;;;;;3.92;67.25;102766.88;6298150;22;46023;-72
2023/01/24 07:49:11;;;;;;;;;44.00;33.50;;;;;3.90;67.51;102772.06;6298145;22;45947;-73
2023/01/24 07:51:36;;;;;;;;;55.75;37.00;;;;;3.87;67.20;102772.09;6298251;22;45967;-76
2023/01/24 07:54:02;;;;;;;;;43.00;34.00;;;;;3.88;67.32;102770.38;6298213;22;46251;-70
2023/01/24 07:56:28;;;;;;;;;44.75;37.25;;;;;3.82;67.38;102768.69;6298109;22;46411;-73
2023/01/24 07:58:53;;;;;;;;;38.00;29.75;;;;;3.84;67.26;102772.09;6298247;22;45547;-73
2023/01/24 08:01:25;;;;;;;;;42.25;37.75;;;;;3.84;67.67;102785.06;6297914;22;45558;-73
2023/01/24 08:03:53;;;;;;;;;43.25;36.50;;;;;3.82;67.66;102779.06;6296693;22;47585;-73
2023/01/24 08:06:18;;;;;;;;;40.75;32.50;;;;;3.80;67.69;102783.38;6268690;22;46650;-72
2023/01/24 08:08:43;;;;;;;;;39.25;34.00;;;;;3.74;67.77;102768.72;6297001;22;46072;-75
2023/01/24 08:11:11;;;;;;;;;45.33;36.00;;;;;3.80;67.44;102784.25;6299668;22;45901;-71
2023/01/24 08:13:37;;;;;;;;;37.00;26.25;;;;;3.82;67.69;102786.81;6299109;22;46434;-71
2023/01/24 08:16:03;;;;;;;;;39.75;34.75;;;;;3.77;67.51;102771.31;6298962;22;46134;-71
2023/01/24 08:18:29;;;;;;;;;39.00;36.75;;;;;3.86;67.66;102788.50;6271242;22;45755;-71
2023/01/24 08:20:56;;;;;;;;;44.25;34.25;;;;;3.82;67.83;102783.38;6299289;22;45792;-71
2023/01/24 08:23:21;;;;;;;;;40.50;32.50;;;;;3.86;67.55;102791.09;6270161;22;47874;-71
2023/01/24 08:25:47;;;;;;;;;41.75;34.75;;;;;3.86;67.56;102796.28;6298881;22;46308;-71
2023/01/24 08:28:12;;;;;;;;;49.75;37.25;;;;;3.85;67.84;102785.94;6298745;22;45640;-70
2023/01/24 08:30:37;;;;;;;;;41.00;29.00;;;;;3.85;67.71;102791.13;6272285;22;45558;-73
2023/01/24 08:33:04;;;;;;;;;52.50;37.75;;;;;3.76;67.95;102779.09;6299587;22;46092;-71
2023/01/24 08:35:31;;;;;;;;;39.00;30.25;;;;;3.84;67.77;102795.44;6299965;22;46078;-72
2023/01/24 08:37:57;;;;;;;;;37.00;30.25;;;;;3.86;67.90;102808.38;6297904;22;46312;-73
2023/01/24 08:40:23;;;;;;;;;40.50;33.00;;;;;3.82;67.62;102789.41;6299120;22;45875;-72
2023/01/24 08:42:48;;;;;;;;;40.00;30.00;;;;;3.87;67.69;102797.16;6298213;22;47190;-72
2023/01/24 08:45:13;;;;;;;;;46.00;37.75;;;;;3.88;67.88;102802.34;6298772;22;45912;-72
2023/01/24 08:47:39;;;;;;;;;52.25;41.25;;;;;3.90;67.72;102803.16;6298722;22;45546;-72
2023/01/24 08:50:04;;;;;;;;;35.00;31.00;;;;;3.86;67.86;102806.66;6299524;22;45831;-72
2023/01/24 08:52:30;;;;;;;;;43.75;34.75;;;;;3.84;67.78;102808.41;6299149;22;47288;-73
2023/01/24 08:54:55;;;;;;;;;48.25;35.00;;;;;3.94;68.01;102819.56;6299146;22;46810;-72
2023/01/24 08:57:21;;;;;;;;;52.75;38.25;;;;;3.96;67.86;102828.19;6299202;22;45479;-73
2023/01/24 08:59:46;;;;;;;;;55.00;39.00;;;;;3.96;67.85;102818.69;6270777;22;45933;-72
2023/01/24 09:02:16;;;;;;;;;30.25;17.75;;;;;3.92;67.62;102813.53;6298468;22;45627;-72
2023/01/24 09:04:44;;;;;;;;;34.50;28.25;;;;;3.96;67.73;102823.00;6299034;22;46038;-74
2023/01/24 09:07:11;;;;;;;;;47.75;36.75;;;;;3.96;67.79;102823.88;6299792;22;45810;-73
2023/01/24 09:09:36;;;;;;;;;39.00;30.00;;;;;3.96;67.72;102817.81;6299550;22;45993;-74
2023/01/24 09:12:01;;;;;;;;;42.00;32.75;;;;;3.99;67.64;102823.00;6299331;22;45557;-73
2023/01/24 09:14:27;;;;;;;;;47.75;38.25;;;;;3.98;67.63;102814.34;6299282;22;46925;-72
2023/01/24 09:16:52;;;;;;;;;47.75;38.50;;;;;3.93;67.66;102821.31;6299396;22;46022;-72
2023/01/24 09:19:17;;;;;;;;;44.00;38.25;;;;;3.99;67.62;102825.59;6298133;22;45878;-73
2023/01/24 09:21:44;;;;;;;;;37.50;34.75;;;;;3.96;67.84;102821.28;6270319;22;48227;-74
2023/01/24 09:24:10;;;;;;;;;32.00;28.75;;;;;3.99;67.94;102825.59;6298191;22;46893;-73
2023/01/24 09:26:35;;;;;;;;;43.75;34.50;;;;;3.97;67.62;102822.13;6298496;22;45833;-72
2023/01/24 09:29:00;;;;;;;;;43.75;35.25;;;;;3.96;68.08;102816.09;6299320;22;46063;-71
2023/01/24 09:31:26;;;;;;;;;35.25;28.00;;;;;3.99;67.72;102841.16;6298731;22;45760;-72
2023/01/24 09:33:51;;;;;;;;;52.25;41.25;;;;;3.99;67.99;102826.44;6297773;22;47260;-73
2023/01/24 09:36:16;;;;;;;;;41.00;35.00;;;;;3.97;67.91;102827.31;6299243;22;45540;-72
2023/01/24 09:38:42;;;;;;;;;51.00;38.75;;;;;3.99;68.10;102829.03;6299082;22;45743;-73
2023/01/24 09:41:22;;;;;;;;;50.75;41.75;;;;;3.99;68.17;102826.44;6271560;22;46337;-73
2023/01/24 09:43:56;;;;;;;;;55.50;39.00;;;;;4.02;67.96;102826.41;6298692;22;46034;-74
2023/01/24 09:46:51;;;;;;;;;39.25;35.75;;;;;4.04;67.98;102839.38;6271037;22;46221;-72
2023/01/24 09:49:39;;;;;;;;;39.25;35.75;;;;;3.97;67.69;102823.00;6203439;22;46005;-72
2023/01/24 09:52:09;;;;;;;;;43.00;32.50;;;;;4.06;67.74;102846.25;6178643;22;46709;-72
2023/01/24 09:54:50;;;;;;;;;50.75;40.00;;;;;4.05;67.88;102828.13;6203247;22;46155;-73
2023/01/24 09:57:46;;;;;;;;;41.00;35.25;;;;;4.08;67.96;102846.25;6203020;22;45630;-73
2023/01/24 10:00:23;;;;;;;;;49.75;38.75;;;;;4.06;67.72;102841.06;6203409;22;45560;-72
2023/01/24 10:02:49;;;;;;;;;33.50;24.00;;;;;4.06;67.63;102835.00;6202739;22;46392;-73
2023/01/24 10:05:16;;;;;;;;;33.00;26.50;;;;;4.14;67.99;102856.56;6203554;22;46024;-73
2023/01/24 10:07:44;;;;;;;;;50.00;38.25;;;;;4.16;67.69;102852.22;6176882;22;45652;-73
2023/01/24 10:10:29;;;;;;;;;38.75;33.75;;;;;4.16;67.85;102857.41;6177598;22;45640;-73
2023/01/24 10:13:10;;;;;;;;;33.00;25.25;;;;;4.17;67.66;102861.72;6082794;23;46651;-73
2023/01/24 10:15:58;;;;;;;;;42.25;34.25;;;;;4.17;67.77;102860.00;6084079;23;46319;-72
2023/01/24 10:18:51;;;;;;;;;50.00;34.50;;;;;4.20;67.63;102857.41;6083495;23;46157;-72
2023/01/24 10:21:28;;;;;;;;;45.00;35.50;;;;;4.24;67.93;102860.81;6084636;23;45802;-73
2023/01/24 10:23:59;;;;;;;;;51.00;42.25;;;;;4.27;67.76;102852.13;6082925;23;47244;-74
2023/01/24 10:26:27;;;;;;;;;46.25;35.25;;;;;4.28;67.63;102853.84;6153446;23;45932;-72
2023/01/24 10:28:59;;;;;;;;;35.75;29.75;;;;;4.27;67.67;102839.16;6173115;23;46010;-73
2023/01/24 10:31:28;;;;;;;;;36.25;33.25;;;;;4.33;67.70;102850.34;6172479;23;45902;-73
2023/01/24 10:34:08;;;;;;;;;47.00;35.25;;;;;4.36;67.69;102850.34;6172223;23;46580;-73
2023/01/24 10:36:50;;;;;;;;;31.75;25.00;;;;;4.41;67.82;102847.69;6172305;23;46235;-72
2023/01/24 10:39:16;;;;;;;;;38.75;29.00;;;;;4.43;67.77;102845.91;6196513;22;45743;-72
2023/01/24 10:41:41;;;;;;;;;40.50;31.00;;;;;4.44;67.45;102847.66;6172549;23;45779;-70
2023/01/24 10:44:29;;;;;;;;;34.50;29.50;;;;;4.47;67.70;102850.22;6172083;23;45623;-74
2023/01/24 10:47:13;;;;;;;;;36.75;33.75;;;;;4.46;67.45;102844.19;6172330;23;47078;-71
2023/01/24 10:49:43;;;;;;;;;42.50;35.75;;;;;4.46;67.33;102838.97;6203808;22;45767;-70
2023/01/24 10:52:18;;;;;;;;;44.25;34.00;;;;;4.49;67.65;102844.13;6268056;22;45577;-74
2023/01/24 10:54:53;;;;;;;;;26.00;23.00;;;;;4.50;67.84;102832.88;6265561;22;46329;-72
2023/01/24 10:57:33;;;;;;;;;39.00;34.75;;;;;4.47;67.19;102832.94;6266985;22;47155;-74
2023/01/24 11:00:15;;;;;;;;;47.75;31.75;;;;;4.47;67.44;102829.47;6266974;22;45882;-73
2023/01/24 11:02:42;;;;;;;;;39.50;33.25;;;;;4.48;67.69;102831.19;6265616;22;45548;-74
2023/01/24 11:05:13;;;;;;;;;37.00;33.00;;;;;4.47;67.69;102827.72;6265867;22;47391;-75
2023/01/24 11:07:45;;;;;;;;;29.50;25.75;;;;;4.51;67.39;102824.22;6266306;22;46199;-74
2023/01/24 11:10:16;;;;;;;;;37.00;24.50;;;;;4.53;67.45;102824.22;6267579;22;46130;-74
2023/01/24 11:12:57;;;;;;;;;38.00;33.25;;;;;4.54;67.43;102812.94;6266831;22;45791;-74
2023/01/24 11:15:33;;;;;;;;;37.00;31.25;;;;;4.56;67.56;102813.78;6267187;22;46368;-74
2023/01/24 11:18:10;;;;;;;;;49.75;39.50;;;;;4.57;67.21;102824.16;6266204;22;48557;-73
2023/01/24 11:20:36;;;;;;;;;41.25;35.25;;;;;4.60;67.62;102818.06;6266103;22;45921;-73
2023/01/24 11:23:11;;;;;;;;;36.00;30.00;;;;;4.59;67.19;102809.41;6267424;22;45872;-72
2023/01/24 11:25:51;;;;;;;;;42.00;33.75;;;;;4.58;67.65;102802.53;6267928;22;46776;-74
2023/01/24 11:28:27;;;;;;;;;36.50;33.50;;;;;4.60;67.22;102802.50;6267571;22;46588;-73
2023/01/24 11:30:56;;;;;;;;;33.50;24.75;;;;;4.65;67.27;102803.28;6267648;22;45805;-75
2023/01/24 11:33:30;;;;;;;;;34.50;30.25;;;;;4.65;67.64;102798.97;6268249;22;45584;-74
2023/01/24 11:36:03;;;;;;;;;40.00;32.50;;;;;4.69;67.48;102797.22;6267442;22;47570;-71
2023/01/24 11:38:35;;;;;;;;;50.00;32.00;;;;;4.71;67.47;102792.84;6271112;22;47916;-74
2023/01/24 11:41:07;;;;;;;;;49.50;37.75;;;;;4.73;67.51;102788.50;6269827;22;45874;-72
2023/01/24 11:43:41;;;;;;;;;41.00;32.75;;;;;4.72;66.86;102797.16;6272740;22;45787;-73
2023/01/24 11:46:25;;;;;;;;;33.75;29.25;;;;;4.72;67.23;102802.34;6298261;22;46470;-73
2023/01/24 11:49:20;;;;;;;;;21.25;18.00;;;;;4.70;67.20;102793.72;6270330;22;47325;-72
2023/01/24 11:52:10;;;;;;;;;37.00;26.00;;;;;4.72;67.18;102793.72;6299757;22;45665;-72
2023/01/24 11:54:50;;;;;;;;;34.50;32.00;;;;;4.73;67.11;102798.03;6299230;22;45738;-73
2023/01/24 11:57:21;;;;;;;;;35.50;27.00;;;;;4.74;67.54;102787.63;6297866;22;47190;-73
2023/01/24 11:59:54;;;;;;;;;34.50;30.00;;;;;4.76;67.58;102785.84;6297634;22;47090;-74
2023/01/24 12:02:41;;;;;;;;;30.00;27.75;;;;;4.77;67.31;102774.59;6298216;22;45457;-73
2023/01/24 12:05:12;;;;;;;;;36.00;28.00;;;;;4.77;67.41;102772.00;6271106;22;45776;-74
2023/01/24 12:08:02;;;;;;;;;41.75;28.75;;;;;4.79;67.38;102777.19;6296972;22;46552;-73